createdAt,value
2017-01-13T00:00:04.357Z,0
2017-01-13T00:00:50.303Z,0
2017-01-13T00:01:31.398Z,0
2017-01-13T00:02:13.486Z,0
2017-01-13T00:02:58.392Z,0
2017-01-13T00:03:41.296Z,0
2017-01-13T00:04:25.297Z,0
2017-01-13T00:05:10.268Z,0
2017-01-13T00:05:52.606Z,0
2017-01-13T00:06:36.387Z,0
2017-01-13T00:07:44.329Z,0
2017-01-13T00:08:29.370Z,0
2017-01-13T00:09:23.506Z,0
2017-01-13T00:10:06.379Z,0
2017-01-13T00:10:49.523Z,0
2017-01-13T00:11:30.791Z,0
2017-01-13T00:12:17.888Z,0
2017-01-13T00:13:00.856Z,0
2017-01-13T00:13:43.889Z,0
2017-01-13T00:14:26.785Z,0
2017-01-13T00:15:09.167Z,0
2017-01-13T00:15:52.042Z,0
2017-01-13T00:16:34.095Z,0
2017-01-13T00:17:16.904Z,0
2017-01-13T00:18:06.778Z,0
2017-01-13T00:18:49.784Z,0
2017-01-13T00:19:30.315Z,0
2017-01-13T00:20:13.594Z,0
2017-01-13T00:20:55.606Z,0
2017-01-13T00:24:48.026Z,0
2017-01-13T00:27:16.765Z,0
2017-01-13T00:28:00.025Z,0
2017-01-13T00:28:41.120Z,0
2017-01-13T00:29:22.522Z,0
2017-01-13T00:30:05.694Z,0
2017-01-13T00:30:47.510Z,0
2017-01-13T00:31:27.955Z,0
2017-01-13T00:32:11.031Z,0
2017-01-13T00:32:51.497Z,0
2017-01-13T00:33:34.857Z,0
2017-01-13T00:34:16.710Z,0
2017-01-13T00:34:58.085Z,0
2017-01-13T00:35:38.588Z,0
2017-01-13T00:36:22.768Z,0
2017-01-13T00:37:05.516Z,0
2017-01-13T00:37:46.814Z,0
2017-01-13T00:38:29.094Z,0
2017-01-13T00:39:11.409Z,0
2017-01-13T00:39:55.502Z,0
2017-01-13T00:40:43.529Z,0
2017-01-13T00:41:26.810Z,0
2017-01-13T00:42:07.289Z,0
2017-01-13T00:42:48.356Z,0
2017-01-13T00:43:34.015Z,0
2017-01-13T00:44:19.002Z,0
2017-01-13T00:45:02.213Z,0
2017-01-13T00:45:46.006Z,0
2017-01-13T00:46:28.066Z,0
2017-01-13T00:47:11.018Z,0
2017-01-13T00:47:53.215Z,0
2017-01-13T00:48:39.070Z,0
2017-01-13T00:49:23.022Z,0
2017-01-13T00:50:09.007Z,0
2017-01-13T00:50:51.003Z,0
2017-01-13T00:51:37.015Z,0
2017-01-13T00:52:18.141Z,0
2017-01-13T00:52:59.533Z,0
2017-01-13T00:53:41.577Z,0
2017-01-13T00:54:26.501Z,0
2017-01-13T00:55:17.889Z,0
2017-01-13T00:56:01.509Z,0
2017-01-13T00:56:44.053Z,0
2017-01-13T00:57:27.038Z,0
2017-01-13T00:58:10.007Z,0
2017-01-13T00:58:58.216Z,0
2017-01-13T00:59:41.983Z,0
2017-01-13T01:00:24.005Z,0
2017-01-13T01:01:05.437Z,0
2017-01-13T01:01:45.917Z,0
2017-01-13T01:02:26.905Z,0
2017-01-13T01:03:11.611Z,0
2017-01-13T01:03:57.087Z,0
2017-01-13T01:04:38.523Z,0
2017-01-13T01:05:21.536Z,0
2017-01-13T01:06:04.725Z,0
2017-01-13T01:06:46.092Z,0
2017-01-13T01:07:28.003Z,0
2017-01-13T01:08:10.025Z,0
2017-01-13T01:08:57.090Z,0
2017-01-13T01:09:40.026Z,0
2017-01-13T01:10:21.225Z,0
2017-01-13T01:11:01.729Z,0
2017-01-13T01:11:42.222Z,0
2017-01-13T01:12:25.301Z,0
2017-01-13T01:13:10.115Z,0
2017-01-13T01:13:55.016Z,0
2017-01-13T01:14:36.436Z,0
2017-01-13T01:15:16.883Z,0
2017-01-13T01:15:59.494Z,0
2017-01-13T01:16:41.581Z,0
2017-01-13T01:17:23.025Z,0
2017-01-13T01:18:15.991Z,0
2017-01-13T01:18:56.488Z,0
2017-01-13T01:19:38.596Z,0
2017-01-13T01:20:22.515Z,0
2017-01-13T01:21:10.513Z,0
2017-01-13T01:21:55.504Z,0
2017-01-13T01:22:36.072Z,0
2017-01-13T01:23:17.126Z,0
2017-01-13T01:23:58.219Z,0
2017-01-13T01:24:42.091Z,0
2017-01-13T01:25:24.994Z,0
2017-01-13T01:26:10.978Z,0
2017-01-13T01:26:56.014Z,0
2017-01-13T01:27:43.111Z,0
2017-01-13T01:28:39.001Z,0
2017-01-13T01:29:23.003Z,0
2017-01-13T01:30:08.082Z,0
2017-01-13T01:30:51.220Z,0
2017-01-13T01:31:33.112Z,0
2017-01-13T01:32:17.084Z,0
2017-01-13T01:32:59.005Z,0
2017-01-13T01:33:51.215Z,0
2017-01-13T01:34:34.069Z,0
2017-01-13T01:35:15.206Z,0
2017-01-13T01:35:58.003Z,0
2017-01-13T01:36:38.522Z,0
2017-01-13T01:37:18.988Z,0
2017-01-13T01:38:00.010Z,0
2017-01-13T01:38:41.098Z,0
2017-01-13T01:39:22.071Z,0
2017-01-13T01:40:02.587Z,0
2017-01-13T01:40:45.009Z,0
2017-01-13T01:41:25.456Z,0
2017-01-13T01:42:06.827Z,0
2017-01-13T01:42:52.494Z,0
2017-01-13T01:43:39.521Z,0
2017-01-13T01:44:21.724Z,0
2017-01-13T01:45:03.593Z,0
2017-01-13T01:45:45.024Z,0
2017-01-13T01:46:27.016Z,0
2017-01-13T01:47:11.293Z,0
2017-01-13T01:47:56.518Z,0
2017-01-13T01:48:39.518Z,0
2017-01-13T01:49:22.606Z,0
2017-01-13T01:50:04.490Z,0
2017-01-13T01:50:45.681Z,0
2017-01-13T01:51:27.600Z,0
2017-01-13T01:52:12.507Z,0
2017-01-13T01:52:54.711Z,0
2017-01-13T01:53:35.767Z,0
2017-01-13T01:54:18.590Z,0
2017-01-13T01:54:59.068Z,0
2017-01-13T01:55:41.110Z,0
2017-01-13T01:56:24.087Z,0
2017-01-13T01:57:10.069Z,0
2017-01-13T01:57:51.982Z,0
2017-01-13T01:58:32.518Z,0
2017-01-13T01:59:14.583Z,0
2017-01-13T01:59:56.579Z,0
2017-01-13T02:00:39.590Z,0
2017-01-13T02:01:22.484Z,0
2017-01-13T02:02:09.506Z,0
2017-01-13T02:02:53.585Z,0
2017-01-13T02:03:34.092Z,0
2017-01-13T02:04:16.296Z,0
2017-01-13T02:04:56.774Z,0
2017-01-13T02:05:39.020Z,0
2017-01-13T02:06:20.306Z,0
2017-01-13T02:07:02.389Z,0
2017-01-13T02:07:43.733Z,0
2017-01-13T02:08:25.712Z,0
2017-01-13T02:09:07.729Z,0
2017-01-13T02:09:49.740Z,0
2017-01-13T02:10:31.087Z,0
2017-01-13T02:11:12.207Z,0
2017-01-13T02:11:52.686Z,0
2017-01-13T02:12:37.518Z,0
2017-01-13T02:13:18.886Z,0
2017-01-13T02:14:02.087Z,0
2017-01-13T02:14:42.574Z,0
2017-01-13T02:15:23.711Z,0
2017-01-13T02:16:05.525Z,0
2017-01-13T02:16:46.793Z,0
2017-01-13T02:17:30.740Z,0
2017-01-13T02:18:19.508Z,0
2017-01-13T02:19:00.568Z,0
2017-01-13T02:19:41.833Z,0
2017-01-13T02:20:22.318Z,0
2017-01-13T02:21:05.331Z,0
2017-01-13T02:21:46.404Z,0
2017-01-13T02:22:29.589Z,0
2017-01-13T02:23:12.514Z,0
2017-01-13T02:23:54.821Z,0
2017-01-13T02:24:35.306Z,0
2017-01-13T02:25:17.524Z,0
2017-01-13T02:25:58.504Z,0
2017-01-13T02:26:40.509Z,0
2017-01-13T02:27:21.819Z,0
2017-01-13T02:28:07.492Z,0
2017-01-13T02:28:49.592Z,0
2017-01-13T02:29:31.517Z,0
2017-01-13T02:30:12.911Z,0
2017-01-13T02:30:53.356Z,0
2017-01-13T02:31:35.090Z,0
2017-01-13T02:32:15.590Z,0
2017-01-13T02:32:56.072Z,0
2017-01-13T02:33:36.556Z,0
2017-01-13T02:34:17.047Z,0
2017-01-13T02:35:01.216Z,0
2017-01-13T02:35:43.085Z,0
2017-01-13T02:36:25.217Z,0
2017-01-13T02:37:08.216Z,0
2017-01-13T02:37:48.676Z,0
2017-01-13T02:38:31.499Z,0
2017-01-13T02:39:12.926Z,0
2017-01-13T02:39:55.216Z,0
2017-01-13T02:40:37.402Z,0
2017-01-13T02:41:18.825Z,0
2017-01-13T02:42:03.112Z,0
2017-01-13T02:42:45.078Z,0
2017-01-13T02:43:26.987Z,0
2017-01-13T02:44:07.473Z,0
2017-01-13T02:44:48.600Z,0
2017-01-13T02:45:29.083Z,0
2017-01-13T02:46:11.033Z,0
2017-01-13T02:46:54.099Z,0
2017-01-13T02:47:35.217Z,0
2017-01-13T02:48:16.583Z,0
2017-01-13T02:48:59.812Z,0
2017-01-13T02:49:40.302Z,0
2017-01-13T02:50:21.836Z,0
2017-01-13T02:51:03.421Z,0
2017-01-13T02:51:45.922Z,0
2017-01-13T02:52:27.256Z,0
2017-01-13T02:53:08.464Z,0
2017-01-13T02:53:50.496Z,0
2017-01-13T02:54:33.920Z,0
2017-01-13T02:55:16.710Z,0
2017-01-13T02:55:59.816Z,0
2017-01-13T02:56:43.536Z,0
2017-01-13T02:57:26.577Z,0
2017-01-13T02:58:07.889Z,0
2017-01-13T02:58:50.491Z,0
2017-01-13T02:59:30.998Z,0
2017-01-13T03:00:12.085Z,0
2017-01-13T03:00:54.084Z,0
2017-01-13T03:01:37.096Z,0
2017-01-13T03:02:20.015Z,0
2017-01-13T03:03:01.003Z,0
2017-01-13T03:03:42.243Z,0
2017-01-13T03:04:25.984Z,0
2017-01-13T03:05:11.058Z,0
2017-01-13T03:05:54.013Z,0
2017-01-13T03:06:36.989Z,0
2017-01-13T03:07:19.989Z,0
2017-01-13T03:08:02.315Z,0
2017-01-13T03:08:43.504Z,0
2017-01-13T03:09:24.795Z,0
2017-01-13T03:10:06.497Z,0
2017-01-13T03:10:49.590Z,0
2017-01-13T03:11:30.814Z,0
2017-01-13T03:12:13.495Z,0
2017-01-13T03:12:54.005Z,0
2017-01-13T03:13:36.422Z,0
2017-01-13T03:14:17.489Z,0
2017-01-13T03:14:59.695Z,0
2017-01-13T03:15:41.600Z,0
2017-01-13T03:16:22.791Z,0
2017-01-13T03:17:03.264Z,0
2017-01-13T03:17:44.722Z,0
2017-01-13T03:18:27.503Z,0
2017-01-13T03:19:08.709Z,0
2017-01-13T03:19:49.178Z,0
2017-01-13T03:20:30.218Z,0
2017-01-13T03:21:14.300Z,0
2017-01-13T03:21:55.724Z,0
2017-01-13T03:22:38.499Z,0
2017-01-13T03:23:20.713Z,0
2017-01-13T03:24:01.725Z,0
2017-01-13T03:24:43.985Z,0
2017-01-13T03:25:24.492Z,0
2017-01-13T03:26:07.494Z,0
2017-01-13T03:27:00.519Z,0
2017-01-13T03:27:42.497Z,0
2017-01-13T03:28:24.692Z,0
2017-01-13T03:29:05.210Z,0
2017-01-13T03:29:48.078Z,0
2017-01-13T03:30:28.600Z,0
2017-01-13T03:31:09.111Z,0
2017-01-13T03:31:49.595Z,0
2017-01-13T03:32:30.089Z,0
2017-01-13T03:33:12.001Z,0
2017-01-13T03:33:54.357Z,0
2017-01-13T03:34:35.809Z,0
2017-01-13T03:35:16.322Z,0
2017-01-13T03:35:58.589Z,0
2017-01-13T03:36:41.695Z,0
2017-01-13T03:37:22.183Z,0
2017-01-13T03:38:03.507Z,0
2017-01-13T03:38:44.090Z,0
2017-01-13T03:39:24.599Z,0
2017-01-13T03:40:05.709Z,0
2017-01-13T03:40:47.505Z,0
2017-01-13T03:41:27.944Z,0
2017-01-13T03:42:08.443Z,0
2017-01-13T03:42:49.918Z,0
2017-01-13T03:43:33.998Z,0
2017-01-13T03:44:15.320Z,0
2017-01-13T03:44:56.494Z,0
2017-01-13T03:45:36.960Z,0
2017-01-13T03:46:17.451Z,0
2017-01-13T03:46:57.926Z,0
2017-01-13T03:47:38.393Z,0
2017-01-13T03:48:18.876Z,0
2017-01-13T03:48:59.336Z,0
2017-01-13T03:49:39.792Z,0
2017-01-13T03:50:20.308Z,0
2017-01-13T03:51:01.982Z,0
2017-01-13T03:51:42.484Z,0
2017-01-13T03:52:22.972Z,0
2017-01-13T03:53:05.001Z,0
2017-01-13T03:53:45.991Z,0
2017-01-13T03:54:28.213Z,0
2017-01-13T03:55:08.737Z,0
2017-01-13T03:55:49.999Z,0
2017-01-13T03:56:30.507Z,0
2017-01-13T03:57:10.986Z,0
2017-01-13T03:57:51.424Z,0
2017-01-13T03:58:32.924Z,0
2017-01-13T03:59:13.400Z,0
2017-01-13T03:59:57.064Z,0
2017-01-13T04:00:37.565Z,0
2017-01-13T04:01:18.995Z,0
2017-01-13T04:01:59.481Z,0
2017-01-13T04:02:39.955Z,0
2017-01-13T04:03:20.434Z,0
2017-01-13T04:04:01.501Z,0
2017-01-13T04:04:42.037Z,0
2017-01-13T04:05:27.070Z,0
2017-01-13T04:06:07.532Z,0
2017-01-13T04:06:48.031Z,0
2017-01-13T04:07:28.507Z,0
2017-01-13T04:08:09.745Z,0
2017-01-13T04:08:50.921Z,0
2017-01-13T04:09:32.702Z,0
2017-01-13T04:10:13.140Z,0
2017-01-13T04:10:54.240Z,0
2017-01-13T04:11:34.683Z,0
2017-01-13T04:12:16.703Z,0
2017-01-13T04:12:57.169Z,0
2017-01-13T04:13:37.658Z,0
2017-01-13T04:14:18.126Z,0
2017-01-13T04:14:59.335Z,0
2017-01-13T04:15:41.495Z,0
2017-01-13T04:16:22.797Z,0
2017-01-13T04:17:04.068Z,0
2017-01-13T04:17:44.529Z,0
2017-01-13T04:18:26.578Z,0
2017-01-13T04:19:07.118Z,0
2017-01-13T04:19:47.613Z,0
2017-01-13T04:20:30.500Z,0
2017-01-13T04:21:11.587Z,0
2017-01-13T04:21:53.495Z,0
2017-01-13T04:22:34.792Z,0
2017-01-13T04:23:15.296Z,0
2017-01-13T04:23:55.783Z,0
2017-01-13T04:24:36.311Z,0
2017-01-13T04:25:17.375Z,0
2017-01-13T04:25:57.852Z,0
2017-01-13T04:26:39.306Z,0
2017-01-13T04:27:19.821Z,0
2017-01-13T04:28:02.026Z,0
2017-01-13T04:28:44.095Z,0
2017-01-13T04:29:25.090Z,0
2017-01-13T04:30:07.377Z,0
2017-01-13T04:30:47.863Z,0
2017-01-13T04:31:29.087Z,0
2017-01-13T04:32:09.604Z,0
2017-01-13T04:32:50.090Z,0
2017-01-13T04:33:30.599Z,0
2017-01-13T04:34:11.795Z,0
2017-01-13T04:34:52.908Z,0
2017-01-13T04:35:34.375Z,0
2017-01-13T04:36:14.868Z,0
2017-01-13T04:36:56.211Z,0
2017-01-13T04:37:37.614Z,0
2017-01-13T04:38:18.072Z,0
2017-01-13T04:39:01.088Z,0
2017-01-13T04:39:41.571Z,0
2017-01-13T04:40:22.092Z,0
2017-01-13T04:41:03.483Z,0
2017-01-13T04:41:44.009Z,0
2017-01-13T04:42:24.486Z,0
2017-01-13T04:43:06.561Z,0
2017-01-13T04:43:50.500Z,0
2017-01-13T04:44:34.506Z,0
2017-01-13T04:45:14.979Z,0
2017-01-13T04:45:55.496Z,0
2017-01-13T04:46:36.923Z,0
2017-01-13T04:47:17.420Z,0
2017-01-13T04:48:00.559Z,0
2017-01-13T04:48:41.075Z,0
2017-01-13T04:49:22.204Z,0
2017-01-13T04:50:05.215Z,0
2017-01-13T04:50:45.711Z,0
2017-01-13T04:51:26.173Z,0
2017-01-13T04:52:06.675Z,0
2017-01-13T04:52:47.710Z,0
2017-01-13T04:53:28.214Z,0
2017-01-13T04:54:08.668Z,0
2017-01-13T04:54:49.129Z,0
2017-01-13T04:55:29.590Z,0
2017-01-13T04:56:11.009Z,0
2017-01-13T04:56:51.480Z,0
2017-01-13T04:57:31.936Z,0
2017-01-13T04:58:14.334Z,0
2017-01-13T04:58:54.798Z,0
2017-01-13T04:59:35.292Z,0
2017-01-13T05:00:15.771Z,0
2017-01-13T05:00:56.997Z,0
2017-01-13T05:01:37.493Z,0
2017-01-13T05:02:17.995Z,0
2017-01-13T05:02:58.999Z,0
2017-01-13T05:03:39.487Z,0
2017-01-13T05:04:19.971Z,0
2017-01-13T05:05:00.433Z,0
2017-01-13T05:05:40.936Z,0
2017-01-13T05:06:22.388Z,0
2017-01-13T05:07:02.864Z,0
2017-01-13T05:07:43.917Z,0
2017-01-13T05:08:24.884Z,0
2017-01-13T05:09:05.368Z,0
2017-01-13T05:09:45.895Z,0
2017-01-13T05:10:26.311Z,0
2017-01-13T05:11:06.865Z,0
2017-01-13T05:11:47.382Z,0
2017-01-13T05:12:27.981Z,0
2017-01-13T05:13:08.678Z,0
2017-01-13T05:13:49.336Z,0
2017-01-13T05:14:30.121Z,0
2017-01-13T05:15:10.912Z,0
2017-01-13T05:15:51.676Z,0
2017-01-13T05:16:32.225Z,0
2017-01-13T05:17:12.719Z,0
2017-01-13T05:17:53.235Z,0
2017-01-13T05:18:33.696Z,0
2017-01-13T05:19:14.163Z,0
2017-01-13T05:19:54.652Z,0
2017-01-13T05:20:35.139Z,0
2017-01-13T05:21:15.619Z,0
2017-01-13T05:21:56.097Z,0
2017-01-13T05:22:36.673Z,0
2017-01-13T05:23:17.149Z,0
2017-01-13T05:23:57.631Z,0
2017-01-13T05:24:38.126Z,0
2017-01-13T05:25:18.622Z,0
2017-01-13T05:25:59.068Z,0
2017-01-13T05:26:39.579Z,0
2017-01-13T05:27:20.038Z,0
2017-01-13T05:28:00.517Z,0
2017-01-13T05:28:41.025Z,0
2017-01-13T05:29:21.507Z,0
2017-01-13T05:30:01.984Z,0
2017-01-13T05:30:42.469Z,0
2017-01-13T05:31:22.951Z,0
2017-01-13T05:32:03.451Z,0
2017-01-13T05:32:43.940Z,0
2017-01-13T05:33:24.435Z,0
2017-01-13T05:34:04.902Z,0
2017-01-13T05:34:45.378Z,0
2017-01-13T05:35:25.836Z,0
2017-01-13T05:36:06.346Z,0
2017-01-13T05:36:46.838Z,0
2017-01-13T05:37:27.342Z,0
2017-01-13T05:38:07.818Z,0
2017-01-13T05:38:48.281Z,0
2017-01-13T05:39:28.775Z,0
2017-01-13T05:40:09.246Z,0
2017-01-13T05:40:49.731Z,0
2017-01-13T05:41:30.208Z,0
2017-01-13T05:42:10.702Z,0
2017-01-13T05:42:51.170Z,0
2017-01-13T05:43:31.678Z,0
2017-01-13T05:44:12.147Z,0
2017-01-13T05:44:52.642Z,0
2017-01-13T05:45:33.113Z,0
2017-01-13T05:46:13.601Z,0
2017-01-13T05:46:54.115Z,0
2017-01-13T05:47:34.607Z,0
2017-01-13T05:48:15.098Z,0
2017-01-13T05:48:55.589Z,0
2017-01-13T05:49:36.089Z,0
2017-01-13T05:50:16.558Z,0
2017-01-13T05:50:57.056Z,0
2017-01-13T05:51:37.538Z,0
2017-01-13T05:52:18.058Z,0
2017-01-13T05:52:58.523Z,0
2017-01-13T05:53:39.021Z,0
2017-01-13T05:54:19.510Z,0
2017-01-13T05:54:59.986Z,0
2017-01-13T05:55:40.483Z,0
2017-01-13T05:56:20.957Z,0
2017-01-13T05:57:01.429Z,0
2017-01-13T05:57:41.904Z,0
2017-01-13T05:58:22.408Z,0
2017-01-13T05:59:02.889Z,0
2017-01-13T05:59:43.385Z,0
2017-01-13T06:00:23.859Z,0
2017-01-13T06:01:04.311Z,0
2017-01-13T06:01:44.821Z,0
2017-01-13T06:02:25.311Z,0
2017-01-13T06:03:05.839Z,0
2017-01-13T06:03:46.292Z,0
2017-01-13T06:04:26.791Z,0
2017-01-13T06:05:07.258Z,0
2017-01-13T06:05:47.733Z,0
2017-01-13T06:06:28.208Z,0
2017-01-13T06:07:08.695Z,0
2017-01-13T06:07:49.154Z,0
2017-01-13T06:08:29.624Z,0
2017-01-13T06:09:10.103Z,0
2017-01-13T06:09:50.607Z,0
2017-01-13T06:10:31.079Z,0
2017-01-13T06:11:11.546Z,0
2017-01-13T06:11:52.010Z,0
2017-01-13T06:12:32.521Z,0
2017-01-13T06:13:12.997Z,0
2017-01-13T06:13:53.508Z,0
2017-01-13T06:14:33.977Z,0
2017-01-13T06:15:14.495Z,0
2017-01-13T06:15:54.967Z,0
2017-01-13T06:16:35.449Z,0
2017-01-13T06:17:15.971Z,0
2017-01-13T06:17:56.471Z,0
2017-01-13T06:18:37.272Z,0
2017-01-13T06:19:18.029Z,0
2017-01-13T06:19:58.726Z,0
2017-01-13T06:20:39.454Z,0
2017-01-13T06:21:19.999Z,0
2017-01-13T06:22:00.468Z,0
2017-01-13T06:22:40.959Z,0
2017-01-13T06:23:21.424Z,0
2017-01-13T06:24:01.932Z,0
2017-01-13T06:24:42.418Z,0
2017-01-13T06:25:22.889Z,0
2017-01-13T06:26:03.361Z,0
2017-01-13T06:26:43.875Z,0
2017-01-13T06:27:24.338Z,0
2017-01-13T06:28:04.815Z,0
2017-01-13T06:28:45.306Z,0
2017-01-13T06:29:25.767Z,0
2017-01-13T06:30:06.241Z,0
2017-01-13T06:30:46.716Z,0
2017-01-13T06:31:27.222Z,0
2017-01-13T06:32:07.694Z,0
2017-01-13T06:32:48.180Z,0
2017-01-13T06:33:28.661Z,0
2017-01-13T06:34:09.147Z,0
2017-01-13T06:34:49.673Z,0
2017-01-13T06:35:30.146Z,0
2017-01-13T06:36:10.670Z,0
2017-01-13T06:36:51.151Z,0
2017-01-13T06:37:31.653Z,0
2017-01-13T06:38:12.144Z,0
2017-01-13T06:38:52.579Z,0
2017-01-13T06:39:33.044Z,0
2017-01-13T06:40:13.571Z,0
2017-01-13T06:40:54.025Z,0
2017-01-13T06:41:34.540Z,0
2017-01-13T06:42:14.986Z,0
2017-01-13T06:42:55.460Z,0
2017-01-13T06:43:35.966Z,0
2017-01-13T06:44:16.453Z,0
2017-01-13T06:44:58.042Z,0
2017-01-13T06:45:38.670Z,0
2017-01-13T06:46:19.162Z,0
2017-01-13T06:46:59.651Z,0
2017-01-13T06:47:40.142Z,0
2017-01-13T06:48:20.632Z,0
2017-01-13T06:49:01.118Z,0
2017-01-13T06:49:41.569Z,0
2017-01-13T06:50:22.060Z,0
2017-01-13T06:51:02.535Z,0
2017-01-13T06:51:43.028Z,0
2017-01-13T06:52:23.490Z,0
2017-01-13T06:53:03.940Z,0
2017-01-13T06:53:44.422Z,0
2017-01-13T06:54:24.944Z,0
2017-01-13T06:55:05.394Z,0
2017-01-13T06:55:46.027Z,0
2017-01-13T06:56:26.463Z,0
2017-01-13T06:57:06.929Z,0
2017-01-13T06:57:47.381Z,0
2017-01-13T06:58:27.865Z,0
2017-01-13T06:59:08.337Z,0
2017-01-13T06:59:48.881Z,0
2017-01-13T07:00:29.405Z,0
2017-01-13T07:01:09.964Z,0
2017-01-13T07:01:50.451Z,0
2017-01-13T07:02:30.891Z,4
2017-01-13T07:03:11.340Z,4
2017-01-13T07:03:51.931Z,4
2017-01-13T07:04:32.408Z,4
2017-01-13T07:05:12.865Z,0
2017-01-13T07:05:53.528Z,0
2017-01-13T07:06:34.833Z,4
2017-01-13T07:07:15.290Z,4
2017-01-13T07:07:55.761Z,4
2017-01-13T07:08:36.243Z,4
2017-01-13T07:09:16.722Z,4
2017-01-13T07:09:57.244Z,4
2017-01-13T07:10:37.653Z,4
2017-01-13T07:11:18.138Z,8
2017-01-13T07:11:58.611Z,8
2017-01-13T07:12:39.065Z,8
2017-01-13T07:13:19.534Z,8
2017-01-13T07:14:00.026Z,8
2017-01-13T07:14:40.526Z,12
2017-01-13T07:15:21.003Z,12
2017-01-13T07:16:01.481Z,16
2017-01-13T07:16:41.962Z,16
2017-01-13T07:17:22.415Z,16
2017-01-13T07:18:02.819Z,20
2017-01-13T07:18:43.306Z,20
2017-01-13T07:21:18.977Z,28
2017-01-13T07:21:59.256Z,28
2017-01-13T07:22:39.782Z,32
2017-01-13T07:23:20.211Z,36
2017-01-13T07:24:00.680Z,40
2017-01-13T07:24:41.195Z,44
2017-01-13T07:25:21.682Z,44
2017-01-13T07:26:02.220Z,48
2017-01-13T07:26:42.761Z,52
2017-01-13T07:27:23.232Z,56
2017-01-13T07:28:03.684Z,56
2017-01-13T07:28:44.149Z,64
2017-01-13T07:29:24.671Z,68
2017-01-13T07:30:05.134Z,68
2017-01-13T07:30:45.609Z,68
2017-01-13T07:31:26.053Z,76
2017-01-13T07:32:06.573Z,80
2017-01-13T07:32:47.033Z,84
2017-01-13T07:33:27.549Z,88
2017-01-13T07:34:07.989Z,96
2017-01-13T07:34:48.517Z,100
2017-01-13T07:35:29.239Z,100
2017-01-13T07:36:09.874Z,108
2017-01-13T07:36:50.994Z,112
2017-01-13T07:37:31.588Z,120
2017-01-13T07:38:12.119Z,128
2017-01-13T07:38:53.063Z,128
2017-01-13T07:39:33.673Z,132
2017-01-13T07:40:14.188Z,136
2017-01-13T07:40:54.635Z,148
2017-01-13T07:41:35.461Z,156
2017-01-13T07:42:15.927Z,172
2017-01-13T07:42:56.403Z,180
2017-01-13T07:43:36.878Z,188
2017-01-13T07:44:17.354Z,200
2017-01-13T07:44:57.851Z,208
2017-01-13T07:45:38.849Z,220
2017-01-13T07:46:19.322Z,232
2017-01-13T07:46:59.802Z,240
2017-01-13T07:47:40.262Z,248
2017-01-13T07:48:20.788Z,256
2017-01-13T07:49:01.230Z,268
2017-01-13T07:49:41.677Z,276
2017-01-13T07:50:22.164Z,288
2017-01-13T07:51:02.669Z,296
2017-01-13T07:51:43.739Z,308
2017-01-13T07:52:24.242Z,320
2017-01-13T07:53:04.750Z,324
2017-01-13T07:53:45.211Z,332
2017-01-13T07:54:25.700Z,344
2017-01-13T07:55:06.223Z,348
2017-01-13T07:55:46.777Z,364
2017-01-13T07:56:27.370Z,372
2017-01-13T07:57:07.956Z,384
2017-01-13T07:57:48.461Z,392
2017-01-13T07:58:28.953Z,408
2017-01-13T07:59:09.409Z,420
2017-01-13T07:59:49.910Z,432
2017-01-13T08:00:30.377Z,452
2017-01-13T08:01:10.877Z,464
2017-01-13T08:01:51.343Z,480
2017-01-13T08:02:31.839Z,488
2017-01-13T08:03:12.309Z,500
2017-01-13T08:03:52.877Z,512
2017-01-13T08:04:33.368Z,524
2017-01-13T08:05:13.845Z,532
2017-01-13T08:05:54.301Z,532
2017-01-13T08:06:36.596Z,532
2017-01-13T08:07:17.093Z,540
2017-01-13T08:07:57.581Z,552
2017-01-13T08:08:38.028Z,560
2017-01-13T08:09:18.492Z,568
2017-01-13T08:09:58.984Z,576
2017-01-13T08:10:39.484Z,592
2017-01-13T08:11:19.960Z,608
2017-01-13T08:12:00.488Z,628
2017-01-13T08:12:40.964Z,640
2017-01-13T08:13:21.482Z,640
2017-01-13T08:14:01.995Z,624
2017-01-13T08:14:42.452Z,652
2017-01-13T08:15:22.925Z,692
2017-01-13T08:16:03.403Z,716
2017-01-13T08:16:43.907Z,724
2017-01-13T08:17:26.225Z,744
2017-01-13T08:18:06.874Z,748
2017-01-13T08:18:47.323Z,768
2017-01-13T08:21:17.941Z,860
2017-01-13T08:22:01.708Z,880
2017-01-13T08:22:42.164Z,872
2017-01-13T08:23:22.637Z,900
2017-01-13T08:24:03.127Z,928
2017-01-13T08:24:43.564Z,944
2017-01-13T08:25:24.137Z,964
2017-01-13T08:26:04.651Z,992
2017-01-13T08:26:45.162Z,1004
2017-01-13T08:27:25.637Z,1020
2017-01-13T08:28:06.090Z,1048
2017-01-13T08:28:46.559Z,1084
2017-01-13T08:29:27.013Z,1112
2017-01-13T08:30:07.478Z,1140
2017-01-13T08:30:47.967Z,1156
2017-01-13T08:31:28.515Z,1180
2017-01-13T08:32:09.012Z,1204
2017-01-13T08:32:49.492Z,1228
2017-01-13T08:33:29.985Z,1260
2017-01-13T08:34:10.468Z,1284
2017-01-13T08:34:50.945Z,1312
2017-01-13T08:35:31.457Z,1340
2017-01-13T08:36:11.911Z,1368
2017-01-13T08:36:52.394Z,1396
2017-01-13T08:37:32.897Z,1416
2017-01-13T08:38:13.375Z,1432
2017-01-13T08:38:53.889Z,1456
2017-01-13T08:39:34.361Z,1472
2017-01-13T08:40:14.878Z,1480
2017-01-13T08:40:55.361Z,1484
2017-01-13T08:41:35.861Z,1484
2017-01-13T08:42:16.334Z,1488
2017-01-13T08:42:56.810Z,1488
2017-01-13T08:43:37.315Z,1488
2017-01-13T08:44:17.794Z,1492
2017-01-13T08:44:58.263Z,1488
2017-01-13T08:45:38.991Z,1488
2017-01-13T08:46:20.460Z,1484
2017-01-13T08:47:00.942Z,1484
2017-01-13T08:47:41.389Z,1480
2017-01-13T08:48:21.851Z,1468
2017-01-13T08:49:02.363Z,1468
2017-01-13T08:49:42.818Z,1472
2017-01-13T08:50:23.299Z,1472
2017-01-13T08:51:03.878Z,1472
2017-01-13T08:51:44.418Z,1472
2017-01-13T08:52:25.249Z,1476
2017-01-13T08:53:05.850Z,1480
2017-01-13T08:53:46.499Z,1484
2017-01-13T08:54:28.173Z,1488
2017-01-13T08:55:10.160Z,1492
2017-01-13T08:55:50.648Z,1504
2017-01-13T08:56:31.241Z,1504
2017-01-13T08:57:11.751Z,1504
2017-01-13T08:57:52.255Z,1500
2017-01-13T08:58:32.761Z,1496
2017-01-13T08:59:13.269Z,1488
2017-01-13T08:59:59.255Z,1484
2017-01-13T09:00:39.749Z,1480
2017-01-13T09:01:20.494Z,1472
2017-01-13T09:03:35.652Z,1448
2017-01-13T09:04:18.274Z,1448
2017-01-13T09:04:58.791Z,1444
2017-01-13T09:05:39.310Z,1444
2017-01-13T09:06:19.819Z,1448
2017-01-13T09:07:00.275Z,1448
2017-01-13T09:07:41.297Z,1452
2017-01-13T09:08:21.752Z,1456
2017-01-13T09:09:02.279Z,1456
2017-01-13T09:09:42.744Z,1460
2017-01-13T09:10:23.257Z,1468
2017-01-13T09:11:04.222Z,1472
2017-01-13T09:11:44.809Z,1476
2017-01-13T09:12:25.259Z,1480
2017-01-13T09:13:05.813Z,1484
2017-01-13T09:13:46.283Z,1492
2017-01-13T09:14:26.847Z,1496
2017-01-13T09:15:07.346Z,1496
2017-01-13T09:15:47.830Z,1496
2017-01-13T09:16:28.394Z,1492
2017-01-13T09:19:10.153Z,1476
2017-01-13T09:21:44.603Z,1516
2017-01-13T09:22:28.009Z,1540
2017-01-13T09:23:08.633Z,1560
2017-01-13T09:23:49.103Z,1584
2017-01-13T09:24:29.582Z,1608
2017-01-13T09:25:10.072Z,1628
2017-01-13T09:25:50.604Z,1656
2017-01-13T09:26:31.296Z,1688
2017-01-13T09:27:11.888Z,1724
2017-01-13T09:27:52.431Z,1760
2017-01-13T09:28:32.915Z,1800
2017-01-13T09:29:13.399Z,1824
2017-01-13T09:29:53.996Z,1840
2017-01-13T09:30:34.666Z,1852
2017-01-13T09:31:15.572Z,1868
2017-01-13T09:31:56.082Z,1864
2017-01-13T09:32:36.580Z,1860
2017-01-13T09:33:17.074Z,1852
2017-01-13T09:33:57.572Z,1844
2017-01-13T09:34:38.073Z,1832
2017-01-13T09:35:18.595Z,1824
2017-01-13T09:35:59.112Z,1820
2017-01-13T09:36:39.573Z,1832
2017-01-13T09:37:20.067Z,1856
2017-01-13T09:38:00.582Z,1884
2017-01-13T09:38:41.136Z,1908
2017-01-13T09:39:21.956Z,1924
2017-01-13T09:40:02.375Z,1936
2017-01-13T09:40:42.878Z,1952
2017-01-13T09:41:23.350Z,1960
2017-01-13T09:42:03.935Z,1988
2017-01-13T09:42:44.412Z,2016
2017-01-13T09:43:25.016Z,2052
2017-01-13T09:44:05.482Z,2080
2017-01-13T09:44:45.971Z,2112
2017-01-13T09:45:26.551Z,2152
2017-01-13T09:46:07.042Z,2176
2017-01-13T09:46:47.544Z,2180
2017-01-13T09:47:28.141Z,2180
2017-01-13T09:48:08.607Z,2188
2017-01-13T09:48:49.130Z,2220
2017-01-13T09:49:29.610Z,2248
2017-01-13T09:50:10.044Z,2264
2017-01-13T09:50:50.513Z,2256
2017-01-13T09:51:31.434Z,2276
2017-01-13T09:52:12.054Z,2288
2017-01-13T09:52:52.557Z,2228
2017-01-13T09:53:33.050Z,2276
2017-01-13T09:54:13.464Z,2364
2017-01-13T09:54:53.935Z,2360
2017-01-13T09:55:34.472Z,2376
2017-01-13T09:56:14.946Z,2332
2017-01-13T09:56:55.437Z,2384
2017-01-13T09:57:35.915Z,2384
2017-01-13T09:58:16.390Z,2364
2017-01-13T09:58:56.869Z,2420
2017-01-13T09:59:37.391Z,2456
2017-01-13T10:00:17.862Z,2456
2017-01-13T10:00:58.290Z,2428
2017-01-13T10:01:38.771Z,2416
2017-01-13T10:02:19.267Z,2400
2017-01-13T10:02:59.695Z,2396
2017-01-13T10:03:40.165Z,2404
2017-01-13T10:04:20.652Z,2408
2017-01-13T10:05:01.166Z,2416
2017-01-13T10:05:41.612Z,2416
2017-01-13T10:06:24.186Z,2432
2017-01-13T10:07:06.068Z,2448
2017-01-13T10:07:46.489Z,2464
2017-01-13T10:08:26.924Z,2496
2017-01-13T10:09:07.392Z,2520
2017-01-13T10:09:47.893Z,2536
2017-01-13T10:10:28.335Z,2544